Meteo Giornale » Osservazioni meteo Sud Africa » Polokwane Intl
ore: 00:00 - Osservazioni Meteo Polokwane Intl
Lat. 23° 50' S Lon. 29° 27' E Alt. 1242 metri s.l.m.
12 °C
Sereno
Temp. 24 Ore
7 °C
28 °C
Nord
1.8 Km/h
Dew point 8 °C
Umidità 76 %
Visibilità 0 Km
Il sole sorge alle ore 06:13
Il sole tramonta alle ore 17:51
| Data e Ora | Cielo e Fenomeni | T °C | DP °C | Um. % | Pres. hPa | Vis. km | Vento km/h | |
|---|---|---|---|---|---|---|---|---|
| Oggi h: 00:00 | Sereno | 12 | 8 | 76 | 1029 | 0 | N 1.8 | |
| Ieri h: 23:00 | Sereno | 14 | 8 | 67 | 1028 | 0 | N 1.8 | |
| Ieri h: 22:00 | Sereno | 14 | 8 | 67 | 1029 | 0 | N 1.8 | |
| Ieri h: 21:00 | Sereno | 15 | 8 | 62 | 1029 | 0 | N 0 | |
| Ieri h: 20:00 | Sereno | 17 | 9 | 59 | 1028 | 10 | E 9.3 | |
| Ieri h: 19:00 | Sereno | 18 | 7 | 48 | 1027 | 10 | E/SE 11.1 | |
| Ieri h: 18:00 | Sereno | 21 | 7 | 40 | 1027 | 10 | E 11.1 | |
| Ieri h: 17:00 | Sereno | 26 | 7 | 29 | 1027 | 10 | NE 13 | |
| Ieri h: 16:00 | Sereno | 27 | 6 | 26 | 1026 | 10 | N/NE 14.8 | |
| Ieri h: 15:00 | Sereno | 27 | 7 | 28 | 1026 | 10 | N 9.3 | |
| Ieri h: 14:00 | Sereno | 27 | 7 | 28 | 1026 | 10 | N/NE 13 | |
| Ieri h: 13:00 | Sereno | 28 | 6 | 24 | 1027 | 10 | N 14.8 | |
| Ieri h: 12:00 | Sereno | 25 | 6 | 29 | 1028 | 10 | E/NE 7.4 | |
| Ieri h: 11:00 | Sereno | 24 | 7 | 33 | 1029 | 10 | N/NE 13 | |
| Ieri h: 10:00 | Sereno | 22 | 10 | 46 | 1029 | 0 | NE 11.1 | |
| Ieri h: 09:00 | Sereno | 19 | 11 | 59 | 1029 | 10 | E/NE 16.7 | |
| Ieri h: 08:00 | Sereno | 15 | 5 | 51 | 1029 | 10 | N 0 | |
| Ieri h: 07:00 | Sereno | 9 | 4 | 70 | 1028 | 10 | SO 7.4 | |
| Ieri h: 06:00 | Sereno | 7 | 3 | 75 | 1027 | 10 | N 5.5 | |
| Ieri h: 05:00 | Sereno | 7 | 3 | 75 | 1027 | 10 | N 1.8 | |
| Ieri h: 04:00 | Sereno | 8 | 3 | 70 | 1027 | 0 | N 5.5 | |
| Ieri h: 03:00 | Sereno | 8 | 3 | 70 | 1027 | 0 | S/SO 7.4 | |
| Ieri h: 02:00 | Sereno | 9 | 3 | 66 | 1027 | 0 | S/SO 7.4 | |



